Time;durP1;ratioP1;P1;durP2;ratioP2;P2;SDS_P1;SDS_P2;PMS_P1;PMS_P2;Temp;Humidity;BMP_temperature;BMP_pressure;BME280_temperature;BME280_humidity;BME280_pressure;Samples;Min_cycle;Max_cycle;Signal;HPM_P1;HPM_P2
2022/09/26 00:01:23;;;;;;;3.17;1.65;;;;;;;;;;5085532;28;20035;-74
2022/09/26 00:03:51;;;;;;;2.97;1.65;;;;;;;;;;5081711;28;20088;-74
2022/09/26 00:06:18;;;;;;;1.88;1.50;;;;;;;;;;5093736;28;20593;-74
2022/09/26 00:08:46;;;;;;;2.70;1.65;;;;;;;;;;5091019;28;20653;-74
2022/09/26 00:11:13;;;;;;;2.95;1.60;;;;;;;;;;5078099;28;20040;-74
2022/09/26 00:13:40;;;;;;;2.67;1.85;;;;;;;;;;5094755;28;20327;-75
2022/09/26 00:16:07;;;;;;;3.00;1.60;;;;;;;;;;5092094;28;20028;-73
2022/09/26 00:18:33;;;;;;;2.42;1.75;;;;;;;;;;5088252;28;20059;-74
2022/09/26 00:21:12;;;;;;;4.10;1.60;;;;;;;;;;5089453;28;20036;-74
2022/09/26 00:23:38;;;;;;;2.58;1.80;;;;;;;;;;5078513;28;20149;-74
2022/09/26 00:26:05;;;;;;;5.45;1.77;;;;;;;;;;5092728;28;20450;-74
2022/09/26 00:28:31;;;;;;;2.72;2.08;;;;;;;;;;5079254;28;20373;-75
2022/09/26 00:31:02;;;;;;;3.45;1.92;;;;;;;;;;5087137;28;20432;-74
2022/09/26 00:33:28;;;;;;;5.53;2.13;;;;;;;;;;5087301;28;20031;-74
2022/09/26 00:35:55;;;;;;;4.43;1.92;;;;;;;;;;5088536;28;20029;-74
2022/09/26 00:38:21;;;;;;;3.65;1.83;;;;;;;;;;5071034;28;20044;-75
2022/09/26 00:40:48;;;;;;;5.53;1.70;;;;;;;;;;5091549;28;20024;-74
2022/09/26 00:43:30;;;;;;;5.65;1.90;;;;;;;;;;5093101;28;20447;-74
2022/09/26 00:46:03;;;;;;;4.43;2.33;;;;;;;;;;5081568;28;20035;-73
2022/09/26 00:48:29;;;;;;;4.38;1.83;;;;;;;;;;5071385;28;20047;-75
2022/09/26 00:50:55;;;;;;;8.20;3.28;;;;;;;;;;5071790;28;20044;-75
2022/09/26 00:53:25;;;;;;;4.28;2.15;;;;;;;;;;5097726;28;20892;-74
2022/09/26 00:55:53;;;;;;;4.35;2.75;;;;;;;;;;5072593;28;20106;-74
2022/09/26 00:58:43;;;;;;;5.60;2.17;;;;;;;;;;5098392;28;20024;-74
2022/09/26 01:01:09;;;;;;;6.95;2.15;;;;;;;;;;5061166;28;20404;-74
2022/09/26 01:03:36;;;;;;;7.55;2.22;;;;;;;;;;5099599;27;20024;-74
2022/09/26 01:06:02;;;;;;;7.28;2.25;;;;;;;;;;5061878;28;20036;-74
2022/09/26 01:08:31;;;;;;;8.77;2.28;;;;;;;;;;5072346;28;20162;-75
2022/09/26 01:10:58;;;;;;;5.10;1.98;;;;;;;;;;5086326;28;20434;-74
2022/09/26 01:13:25;;;;;;;4.45;1.80;;;;;;;;;;5092418;28;20479;-74
2022/09/26 01:15:51;;;;;;;4.85;1.73;;;;;;;;;;5063076;28;20021;-74
2022/09/26 01:18:18;;;;;;;7.55;2.13;;;;;;;;;;5095545;28;20107;-74
2022/09/26 01:21:03;;;;;;;6.38;1.98;;;;;;;;;;5089010;28;20024;-74
2022/09/26 01:23:57;;;;;;;7.20;2.33;;;;;;;;;;5085726;28;20020;-74
2022/09/26 01:26:36;;;;;;;7.88;2.55;;;;;;;;;;5093300;28;21652;-75
2022/09/26 01:29:20;;;;;;;6.07;2.85;;;;;;;;;;5069310;28;20118;-74
2022/09/26 01:34:43;;;;;;;6.15;2.78;;;;;;;;;;5080621;28;20691;-74
2022/09/26 01:37:16;;;;;;;7.53;2.75;;;;;;;;;;5089210;28;20074;-74
2022/09/26 01:40:05;;;;;;;7.55;3.33;;;;;;;;;;5085563;28;20032;-74
2022/09/26 01:42:50;;;;;;;7.20;2.60;;;;;;;;;;5065091;28;20093;-74
2022/09/26 01:45:21;;;;;;;11.80;3.50;;;;;;;;;;5087220;28;20036;-74
2022/09/26 01:47:50;;;;;;;12.45;4.55;;;;;;;;;;5088318;28;20447;-74
2022/09/26 01:50:39;;;;;;;8.55;3.33;;;;;;;;;;5059768;28;20484;-75
2022/09/26 01:53:09;;;;;;;11.48;3.58;;;;;;;;;;5035777;28;20066;-75
2022/09/26 01:55:37;;;;;;;14.25;3.25;;;;;;;;;;5083891;28;20032;-74
2022/09/26 01:58:09;;;;;;;11.90;3.72;;;;;;;;;;5081582;28;20032;-75
2022/09/26 02:00:36;;;;;;;9.63;3.10;;;;;;;;;;5082765;28;20020;-74
2022/09/26 02:03:04;;;;;;;19.25;4.00;;;;;;;;;;5100653;28;20682;-74
2022/09/26 02:05:42;;;;;;;11.25;3.55;;;;;;;;;;5073285;28;20481;-75
2022/09/26 02:08:15;;;;;;;11.77;3.85;;;;;;;;;;5102794;27;20488;-74
2022/09/26 02:10:52;;;;;;;14.50;3.88;;;;;;;;;;5072145;28;20032;-74
2022/09/26 02:13:27;;;;;;;17.85;4.53;;;;;;;;;;5081758;28;20035;-75
2022/09/26 02:15:56;;;;;;;11.07;3.35;;;;;;;;;;5070855;28;22315;-74
2022/09/26 02:18:25;;;;;;;15.48;4.30;;;;;;;;;;5094929;28;20031;-75
2022/09/26 02:20:55;;;;;;;11.50;3.13;;;;;;;;;;5071833;28;20115;-75
2022/09/26 02:23:21;;;;;;;14.85;3.53;;;;;;;;;;5072521;28;20024;-74
2022/09/26 02:25:48;;;;;;;12.10;5.40;;;;;;;;;;5085688;28;21126;-75
2022/09/26 02:28:14;;;;;;;19.85;3.88;;;;;;;;;;5085273;28;20048;-75
2022/09/26 02:30:42;;;;;;;15.77;4.03;;;;;;;;;;5090551;28;20024;-74
2022/09/26 02:33:08;;;;;;;20.88;5.03;;;;;;;;;;5081529;28;20028;-75
2022/09/26 02:38:19;;;;;;;14.77;3.80;;;;;;;;;;5081347;28;20550;-74
2022/09/26 02:40:45;;;;;;;13.27;4.28;;;;;;;;;;5085108;28;20089;-75
2022/09/26 02:43:30;;;;;;;17.17;4.35;;;;;;;;;;5067741;28;20032;-74
2022/09/26 02:46:14;;;;;;;14.80;4.93;;;;;;;;;;5085437;28;20059;-74
2022/09/26 02:48:48;;;;;;;17.80;5.97;;;;;;;;;;5082464;28;20306;-74
2022/09/26 02:51:26;;;;;;;16.88;4.53;;;;;;;;;;5081128;28;20982;-75
2022/09/26 02:53:55;;;;;;;18.67;4.90;;;;;;;;;;5074169;28;20097;-74
2022/09/26 02:56:28;;;;;;;16.90;4.95;;;;;;;;;;5067291;28;20069;-75
2022/09/26 02:59:04;;;;;;;15.68;3.95;;;;;;;;;;5077694;28;20115;-75
2022/09/26 03:01:30;;;;;;;;;;;;;;;;;;5086575;28;20072;-74
2022/09/26 03:04:05;;;;;;;18.00;4.53;;;;;;;;;;5077146;28;19912;-75
2022/09/26 03:06:36;;;;;;;14.25;4.80;;;;;;;;;;5091229;28;20028;-74
2022/09/26 03:09:03;;;;;;;19.35;4.60;;;;;;;;;;5085690;28;20035;-74
2022/09/26 03:11:29;;;;;;;18.33;4.43;;;;;;;;;;5084459;28;20048;-75
2022/09/26 03:13:56;;;;;;;24.67;5.95;;;;;;;;;;5080545;28;20410;-74
2022/09/26 03:16:24;;;;;;;20.77;4.85;;;;;;;;;;5090516;28;20036;-74
2022/09/26 03:18:53;;;;;;;23.58;5.55;;;;;;;;;;5065540;28;20023;-74
2022/09/26 03:21:19;;;;;;;18.92;6.43;;;;;;;;;;5083830;28;20369;-75
2022/09/26 03:23:45;;;;;;;19.40;5.95;;;;;;;;;;5084979;28;20121;-75
2022/09/26 03:26:15;;;;;;;17.38;4.85;;;;;;;;;;5090930;28;20039;-75
2022/09/26 03:28:41;;;;;;;58.83;8.25;;;;;;;;;;5088900;28;20087;-75
2022/09/26 03:31:08;;;;;;;23.30;7.00;;;;;;;;;;5084342;28;20022;-75
2022/09/26 03:33:34;;;;;;;23.42;5.60;;;;;;;;;;5096103;28;20106;-74
2022/09/26 03:36:04;;;;;;;24.08;5.68;;;;;;;;;;5092133;28;20036;-75
2022/09/26 03:38:30;;;;;;;25.60;6.68;;;;;;;;;;5080162;28;20388;-73
2022/09/26 03:40:57;;;;;;;29.00;6.55;;;;;;;;;;5069310;28;20028;-75
2022/09/26 03:43:23;;;;;;;20.98;6.60;;;;;;;;;;5082430;28;20032;-75
2022/09/26 03:45:50;;;;;;;24.35;5.15;;;;;;;;;;5079381;28;20080;-74
2022/09/26 03:48:16;;;;;;;29.60;6.95;;;;;;;;;;5090220;28;20091;-75
2022/09/26 03:50:42;;;;;;;18.33;5.47;;;;;;;;;;5086429;28;20034;-75
2022/09/26 03:53:09;;;;;;;22.70;5.85;;;;;;;;;;5078051;28;20090;-74
2022/09/26 03:55:35;;;;;;;20.05;5.05;;;;;;;;;;5087763;28;20032;-74
2022/09/26 03:58:01;;;;;;;35.08;6.00;;;;;;;;;;5082305;28;20103;-75
2022/09/26 04:00:27;;;;;;;23.92;5.90;;;;;;;;;;5065882;28;20020;-74
2022/09/26 04:02:53;;;;;;;25.13;7.13;;;;;;;;;;5086247;28;20606;-74
2022/09/26 04:05:19;;;;;;;20.25;5.88;;;;;;;;;;5091766;28;20027;-75
2022/09/26 04:07:46;;;;;;;38.72;7.07;;;;;;;;;;5072610;28;20448;-75
2022/09/26 04:10:12;;;;;;;25.02;7.28;;;;;;;;;;5069058;28;20050;-75
2022/09/26 04:12:39;;;;;;;27.70;6.15;;;;;;;;;;5086391;28;20025;-74
2022/09/26 04:15:08;;;;;;;26.73;7.43;;;;;;;;;;5083040;28;20036;-74
2022/09/26 04:17:35;;;;;;;24.95;6.28;;;;;;;;;;5068445;28;20043;-75
2022/09/26 04:20:01;;;;;;;22.33;5.47;;;;;;;;;;5060542;28;20110;-74
2022/09/26 04:22:27;;;;;;;26.85;6.78;;;;;;;;;;5085316;28;20020;-74
2022/09/26 04:24:54;;;;;;;22.90;5.93;;;;;;;;;;5078902;28;20027;-74
2022/09/26 04:27:20;;;;;;;24.63;5.90;;;;;;;;;;5082233;28;20059;-74
2022/09/26 04:29:46;;;;;;;23.00;5.53;;;;;;;;;;5057012;28;20035;-74
2022/09/26 04:32:12;;;;;;;19.20;6.03;;;;;;;;;;5081770;28;20032;-75
2022/09/26 04:34:39;;;;;;;24.38;6.50;;;;;;;;;;5079637;28;20039;-74
2022/09/26 04:37:05;;;;;;;19.40;6.97;;;;;;;;;;5081259;28;20024;-74
2022/09/26 04:39:32;;;;;;;22.35;5.78;;;;;;;;;;5085242;28;20024;-75
2022/09/26 04:41:59;;;;;;;20.08;5.30;;;;;;;;;;5070428;28;20028;-74
2022/09/26 04:44:25;;;;;;;27.20;6.13;;;;;;;;;;5085589;28;20464;-75
2022/09/26 04:46:52;;;;;;;20.75;4.82;;;;;;;;;;5088997;28;20020;-75
2022/09/26 04:49:19;;;;;;;27.17;6.07;;;;;;;;;;5087006;28;20024;-74
2022/09/26 04:51:45;;;;;;;25.55;6.78;;;;;;;;;;5084536;28;20586;-76
2022/09/26 04:54:11;;;;;;;32.63;6.80;;;;;;;;;;5084395;28;20028;-75
2022/09/26 04:56:37;;;;;;;23.17;6.68;;;;;;;;;;5084114;28;20029;-74
2022/09/26 04:59:04;;;;;;;27.15;5.95;;;;;;;;;;5083323;28;20024;-74
2022/09/26 05:01:30;;;;;;;22.38;6.40;;;;;;;;;;5087485;28;20715;-74
2022/09/26 05:03:57;;;;;;;23.15;5.55;;;;;;;;;;5088329;28;20063;-74
2022/09/26 05:06:23;;;;;;;21.88;5.65;;;;;;;;;;5095121;28;20024;-74
2022/09/26 05:08:50;;;;;;;27.63;6.22;;;;;;;;;;5073041;28;20048;-74
2022/09/26 05:11:17;;;;;;;20.65;6.18;;;;;;;;;;5088472;28;20089;-74
2022/09/26 05:13:43;;;;;;;25.63;5.78;;;;;;;;;;5084871;28;20116;-74
2022/09/26 05:16:10;;;;;;;26.27;5.60;;;;;;;;;;5075507;28;20980;-75
2022/09/26 05:18:38;;;;;;;22.52;5.20;;;;;;;;;;5103356;27;20024;-75
2022/09/26 05:21:05;;;;;;;26.23;6.13;;;;;;;;;;5091895;28;20024;-74
2022/09/26 05:26:19;;;;;;;25.55;6.28;;;;;;;;;;5089017;28;20392;-75
2022/09/26 05:29:03;;;;;;;30.17;6.45;;;;;;;;;;5084325;28;20480;-74
2022/09/26 05:31:33;;;;;;;23.65;5.47;;;;;;;;;;5086487;28;20039;-74
2022/09/26 05:34:00;;;;;;;23.88;5.60;;;;;;;;;;5072419;28;20500;-75
2022/09/26 05:36:26;;;;;;;26.45;6.65;;;;;;;;;;5090360;28;20040;-74
2022/09/26 05:38:53;;;;;;;22.70;6.82;;;;;;;;;;5073631;28;20411;-74
2022/09/26 05:41:19;;;;;;;27.83;5.65;;;;;;;;;;5087382;28;20028;-74
2022/09/26 05:43:46;;;;;;;26.23;5.40;;;;;;;;;;5097773;28;20552;-72
2022/09/26 05:46:13;;;;;;;21.02;5.20;;;;;;;;;;5086696;28;20476;-75
2022/09/26 05:48:40;;;;;;;29.17;7.30;;;;;;;;;;5073558;28;20031;-74
2022/09/26 05:51:11;;;;;;;23.55;6.03;;;;;;;;;;5102500;28;20108;-75
2022/09/26 05:53:38;;;;;;;23.23;6.28;;;;;;;;;;5078405;28;20501;-74
2022/09/26 05:56:05;;;;;;;21.45;6.00;;;;;;;;;;5066803;28;20123;-74
2022/09/26 05:58:33;;;;;;;27.13;6.93;;;;;;;;;;5081783;28;20020;-73
2022/09/26 06:01:06;;;;;;;21.13;5.72;;;;;;;;;;5082046;28;20099;-74
2022/09/26 06:03:35;;;;;;;26.23;5.30;;;;;;;;;;5071180;28;20024;-74
2022/09/26 06:06:06;;;;;;;26.67;5.95;;;;;;;;;;5081611;28;20028;-74
2022/09/26 06:08:32;;;;;;;24.42;5.45;;;;;;;;;;5080364;28;20418;-73
2022/09/26 06:11:09;;;;;;;20.33;5.53;;;;;;;;;;5084629;28;20142;-73
2022/09/26 06:13:36;;;;;;;19.52;5.22;;;;;;;;;;5073430;28;20036;-75
2022/09/26 06:16:06;;;;;;;20.25;4.57;;;;;;;;;;5081988;28;20682;-74
2022/09/26 06:18:33;;;;;;;20.20;6.20;;;;;;;;;;5082941;28;20021;-74
2022/09/26 06:21:06;;;;;;;25.38;7.35;;;;;;;;;;5090319;28;20020;-75
2022/09/26 06:23:36;;;;;;;22.83;5.78;;;;;;;;;;5086786;28;20052;-75
2022/09/26 06:26:02;;;;;;;22.48;4.85;;;;;;;;;;5089119;28;20070;-75
2022/09/26 06:28:29;;;;;;;18.95;5.40;;;;;;;;;;5086883;28;20135;-75
2022/09/26 06:30:56;;;;;;;13.35;4.32;;;;;;;;;;5105032;28;20028;-75
2022/09/26 06:33:22;;;;;;;16.20;3.90;;;;;;;;;;5075262;28;20399;-75
2022/09/26 06:35:58;;;;;;;10.98;3.78;;;;;;;;;;5087665;28;20444;-75
2022/09/26 06:38:25;;;;;;;13.98;4.20;;;;;;;;;;5068947;28;20012;-75
2022/09/26 06:40:54;;;;;;;19.42;4.30;;;;;;;;;;5070564;28;20044;-75
2022/09/26 06:43:21;;;;;;;18.80;5.78;;;;;;;;;;5055017;28;20017;-75
2022/09/26 06:45:48;;;;;;;23.90;4.25;;;;;;;;;;5084317;28;20523;-75
2022/09/26 06:48:18;;;;;;;15.70;5.03;;;;;;;;;;5061913;28;20028;-75
2022/09/26 06:50:44;;;;;;;17.75;4.70;;;;;;;;;;5078579;28;20039;-75
2022/09/26 06:53:10;;;;;;;12.98;3.72;;;;;;;;;;5088044;28;20088;-75
2022/09/26 06:55:36;;;;;;;14.68;4.85;;;;;;;;;;5081301;28;20132;-75
2022/09/26 06:58:02;;;;;;;15.43;3.97;;;;;;;;;;5077305;28;20058;-75
2022/09/26 07:00:28;;;;;;;13.48;4.85;;;;;;;;;;5054718;28;20025;-75
2022/09/26 07:02:55;;;;;;;17.73;4.00;;;;;;;;;;5068050;28;20449;-73
2022/09/26 07:05:23;;;;;;;20.70;5.22;;;;;;;;;;5080456;28;20039;-74
2022/09/26 07:07:49;;;;;;;12.32;4.53;;;;;;;;;;5091979;28;20497;-75
2022/09/26 07:10:17;;;;;;;18.40;5.18;;;;;;;;;;5067811;28;20056;-75
2022/09/26 07:12:45;;;;;;;19.00;5.90;;;;;;;;;;5091613;28;20028;-74
2022/09/26 07:15:14;;;;;;;11.95;4.18;;;;;;;;;;5083139;28;20013;-75
2022/09/26 07:17:41;;;;;;;14.10;4.57;;;;;;;;;;5087549;28;20031;-75
2022/09/26 07:20:09;;;;;;;21.17;6.15;;;;;;;;;;5071494;28;20027;-75
2022/09/26 07:22:36;;;;;;;11.10;3.20;;;;;;;;;;5069314;28;20114;-75
2022/09/26 07:25:02;;;;;;;16.20;3.65;;;;;;;;;;5092369;28;20507;-76
2022/09/26 07:27:28;;;;;;;10.40;3.80;;;;;;;;;;5088451;28;20044;-75
2022/09/26 07:29:55;;;;;;;15.43;3.42;;;;;;;;;;5084713;28;20093;-76
2022/09/26 07:32:21;;;;;;;14.13;3.35;;;;;;;;;;5077492;28;20048;-75
2022/09/26 07:34:48;;;;;;;12.55;3.58;;;;;;;;;;5066625;28;20408;-75
2022/09/26 07:37:16;;;;;;;10.45;3.22;;;;;;;;;;5086859;28;20391;-74
2022/09/26 07:39:42;;;;;;;11.00;3.80;;;;;;;;;;5081388;28;20020;-75
2022/09/26 07:42:08;;;;;;;7.47;3.70;;;;;;;;;;5088337;28;20456;-75
2022/09/26 07:44:35;;;;;;;15.73;3.25;;;;;;;;;;5066346;28;20021;-75
2022/09/26 07:52:42;;;;;;;11.27;3.17;;;;;;;;;;5069040;28;20114;-75
2022/09/26 07:55:09;;;;;;;12.23;3.55;;;;;;;;;;5060971;28;20534;-75
2022/09/26 07:57:35;;;;;;;8.48;3.17;;;;;;;;;;5080431;28;20496;-75
2022/09/26 08:00:03;;;;;;;12.63;3.25;;;;;;;;;;5067577;28;20032;-75
2022/09/26 08:02:34;;;;;;;8.88;3.15;;;;;;;;;;5068718;28;20026;-74
2022/09/26 08:05:02;;;;;;;12.48;3.90;;;;;;;;;;5065993;28;20485;-75
2022/09/26 08:07:29;;;;;;;8.02;3.10;;;;;;;;;;5080572;28;20069;-74
2022/09/26 08:09:56;;;;;;;13.80;3.85;;;;;;;;;;5084190;28;20086;-74
2022/09/26 08:12:22;;;;;;;8.07;3.38;;;;;;;;;;5081323;28;20334;-75
2022/09/26 08:14:50;;;;;;;11.07;3.92;;;;;;;;;;5080354;28;20119;-75
2022/09/26 08:17:16;;;;;;;11.23;3.65;;;;;;;;;;5068782;28;20029;-74
2022/09/26 08:19:42;;;;;;;11.07;3.40;;;;;;;;;;5084432;28;20113;-75
2022/09/26 08:22:09;;;;;;;13.52;3.70;;;;;;;;;;5067542;28;20023;-74
2022/09/26 08:24:35;;;;;;;16.35;3.88;;;;;;;;;;5066548;28;20032;-80
2022/09/26 08:27:01;;;;;;;12.75;3.38;;;;;;;;;;5068959;28;20055;-76
2022/09/26 08:29:31;;;;;;;12.38;3.22;;;;;;;;;;5068287;28;20610;-75
2022/09/26 08:31:59;;;;;;;8.50;2.80;;;;;;;;;;5065651;28;20511;-74
2022/09/26 08:34:26;;;;;;;11.55;3.85;;;;;;;;;;5085038;28;20519;-74
2022/09/26 08:36:53;;;;;;;12.82;4.13;;;;;;;;;;5082953;28;20111;-74
2022/09/26 08:39:20;;;;;;;12.30;3.40;;;;;;;;;;5087343;28;20136;-74
2022/09/26 08:41:56;;;;;;;11.35;3.50;;;;;;;;;;5086192;28;20034;-80
2022/09/26 08:44:23;;;;;;;10.60;2.97;;;;;;;;;;5086902;28;20024;-74
2022/09/26 08:47:03;;;;;;;14.48;3.70;;;;;;;;;;5085384;28;20036;-75
2022/09/26 08:49:38;;;;;;;10.93;4.07;;;;;;;;;;5066612;28;20151;-75
2022/09/26 08:52:04;;;;;;;;;;;;;;;;;;5085175;28;20439;-76
2022/09/26 08:54:30;;;;;;;11.90;4.22;;;;;;;;;;5085937;28;19920;-75
2022/09/26 08:56:59;;;;;;;9.88;4.32;;;;;;;;;;5081692;28;20028;-74
2022/09/26 08:59:28;;;;;;;14.65;3.75;;;;;;;;;;5084815;28;20077;-74
2022/09/26 09:01:56;;;;;;;11.18;3.13;;;;;;;;;;5082570;28;20039;-75
2022/09/26 09:04:41;;;;;;;9.75;3.53;;;;;;;;;;5086111;28;20345;-75
2022/09/26 09:07:28;;;;;;;7.73;3.60;;;;;;;;;;5083930;28;20425;-75
2022/09/26 09:10:01;;;;;;;11.57;3.13;;;;;;;;;;5062767;28;20681;-75
2022/09/26 09:12:48;;;;;;;7.88;2.92;;;;;;;;;;5067728;28;20070;-75
2022/09/26 09:15:14;;;;;;;9.82;3.25;;;;;;;;;;5082636;28;20427;-74
2022/09/26 09:17:46;;;;;;;10.75;3.65;;;;;;;;;;5067638;28;20047;-75
2022/09/26 09:20:19;;;;;;;8.93;2.72;;;;;;;;;;5063566;28;20106;-81
2022/09/26 09:23:04;;;;;;;10.77;2.83;;;;;;;;;;5082129;28;20781;-74
2022/09/26 09:25:31;;;;;;;10.57;2.83;;;;;;;;;;5067842;28;20405;-75
2022/09/26 09:28:03;;;;;;;7.32;2.42;;;;;;;;;;5084612;28;20040;-75
2022/09/26 09:30:41;;;;;;;10.38;3.72;;;;;;;;;;5086816;28;20082;-76
2022/09/26 09:33:22;;;;;;;9.77;3.47;;;;;;;;;;5063799;28;20066;-74
2022/09/26 09:36:01;;;;;;;8.15;3.05;;;;;;;;;;5067764;28;20027;-76
2022/09/26 09:38:29;;;;;;;9.23;3.20;;;;;;;;;;5084339;28;20027;-74
2022/09/26 09:40:58;;;;;;;11.52;2.70;;;;;;;;;;5080921;28;20024;-77
2022/09/26 09:43:25;;;;;;;11.23;2.75;;;;;;;;;;5083991;28;20024;-75
2022/09/26 09:45:53;;;;;;;8.10;2.78;;;;;;;;;;5079530;28;20426;-75
2022/09/26 09:48:19;;;;;;;6.60;2.92;;;;;;;;;;5084521;28;20032;-75
2022/09/26 09:51:09;;;;;;;9.50;2.10;;;;;;;;;;5081113;28;20047;-76
2022/09/26 09:53:54;;;;;;;11.48;2.95;;;;;;;;;;5057307;28;20766;-75
2022/09/26 09:56:44;;;;;;;9.57;3.17;;;;;;;;;;5081084;28;20035;-75
2022/09/26 09:59:19;;;;;;;9.57;3.85;;;;;;;;;;5080531;28;20698;-75
2022/09/26 10:01:45;;;;;;;;;;;;;;;;;;5067927;28;20118;-75
2022/09/26 10:04:34;;;;;;;6.75;2.78;;;;;;;;;;5064241;28;20003;-75
2022/09/26 10:07:00;;;;;;;7.30;3.38;;;;;;;;;;5068347;28;20087;-75
2022/09/26 10:09:30;;;;;;;11.88;3.17;;;;;;;;;;5082834;28;20476;-75
2022/09/26 10:11:56;;;;;;;10.38;2.55;;;;;;;;;;5067076;28;20073;-75
2022/09/26 10:14:42;;;;;;;7.57;2.80;;;;;;;;;;5083363;28;20094;-74
2022/09/26 10:17:11;;;;;;;5.18;2.50;;;;;;;;;;5081773;28;20032;-75
2022/09/26 10:19:38;;;;;;;6.47;2.60;;;;;;;;;;5065524;28;20024;-75
2022/09/26 10:22:16;;;;;;;10.48;2.33;;;;;;;;;;5083145;28;20020;-75
2022/09/26 10:24:44;;;;;;;7.53;3.20;;;;;;;;;;5064909;28;20043;-75
2022/09/26 10:27:17;;;;;;;9.68;2.35;;;;;;;;;;5065686;28;20047;-75
2022/09/26 10:29:43;;;;;;;12.18;2.50;;;;;;;;;;5081011;28;20107;-75
2022/09/26 10:32:10;;;;;;;5.65;2.38;;;;;;;;;;5084058;28;20138;-75
2022/09/26 10:34:38;;;;;;;9.25;2.30;;;;;;;;;;5065322;28;20379;-75
2022/09/26 10:37:29;;;;;;;9.38;2.72;;;;;;;;;;5081051;28;21384;-75
2022/09/26 10:42:46;;;;;;;7.35;2.30;;;;;;;;;;5065142;28;20028;-75
2022/09/26 10:45:16;;;;;;;6.30;2.30;;;;;;;;;;5083804;28;20103;-75
2022/09/26 10:47:44;;;;;;;8.25;2.40;;;;;;;;;;5066727;28;20032;-75
2022/09/26 10:50:22;;;;;;;6.82;3.10;;;;;;;;;;5063137;28;20027;-75
2022/09/26 10:52:50;;;;;;;7.00;2.28;;;;;;;;;;5065724;28;20047;-75
2022/09/26 10:55:18;;;;;;;4.25;2.20;;;;;;;;;;5080029;28;20123;-75
2022/09/26 10:57:50;;;;;;;11.80;2.60;;;;;;;;;;5084952;28;20027;-75
2022/09/26 11:00:38;;;;;;;7.00;2.13;;;;;;;;;;5065123;28;20032;-75
2022/09/26 11:03:12;;;;;;;5.55;2.22;;;;;;;;;;5063125;28;20490;-75
2022/09/26 11:05:55;;;;;;;7.57;2.63;;;;;;;;;;5061380;28;20709;-75
2022/09/26 11:08:29;;;;;;;4.80;2.33;;;;;;;;;;5078006;28;20555;-75
2022/09/26 11:14:19;;;;;;;4.82;2.13;;;;;;;;;;5062706;28;20039;-75
2022/09/26 11:17:07;;;;;;;4.32;2.15;;;;;;;;;;5079239;28;20036;-77
2022/09/26 11:19:55;;;;;;;6.85;2.65;;;;;;;;;;5062446;28;20043;-75
2022/09/26 11:22:50;;;;;;;7.35;2.63;;;;;;;;;;5063402;28;20060;-74
2022/09/26 11:25:38;;;;;;;6.63;2.08;;;;;;;;;;5059837;28;20074;-74
2022/09/26 11:28:22;;;;;;;4.20;1.90;;;;;;;;;;5064205;28;20032;-75
2022/09/26 11:30:54;;;;;;;6.15;2.55;;;;;;;;;;5063534;28;20045;-75
2022/09/26 11:33:22;;;;;;;5.53;2.75;;;;;;;;;;5066394;28;20023;-75
2022/09/26 11:35:55;;;;;;;5.47;1.92;;;;;;;;;;5063864;28;20024;-74
2022/09/26 11:38:24;;;;;;;9.30;2.28;;;;;;;;;;5064101;28;20027;-80
2022/09/26 11:40:59;;;;;;;5.25;2.20;;;;;;;;;;5048683;28;20436;-75
2022/09/26 11:43:35;;;;;;;5.55;2.10;;;;;;;;;;5066906;28;20025;-75
2022/09/26 11:46:17;;;;;;;6.68;2.80;;;;;;;;;;5044505;28;20041;-75
2022/09/26 11:48:47;;;;;;;6.38;2.67;;;;;;;;;;5067134;28;20028;-74
2022/09/26 11:51:33;;;;;;;7.63;2.58;;;;;;;;;;5052291;28;20036;-74
2022/09/26 11:54:11;;;;;;;4.88;1.92;;;;;;;;;;5048213;28;20482;-75
2022/09/26 11:56:44;;;;;;;3.63;1.85;;;;;;;;;;5065865;28;20016;-75
2022/09/26 11:59:23;;;;;;;5.28;2.08;;;;;;;;;;5044915;28;20138;-74
2022/09/26 12:02:07;;;;;;;7.18;2.55;;;;;;;;;;5047342;28;20055;-74
2022/09/26 12:05:00;;;;;;;6.70;2.90;;;;;;;;;;5052143;28;20024;-78
2022/09/26 12:07:30;;;;;;;4.97;1.80;;;;;;;;;;5054461;28;20051;-76
2022/09/26 12:10:16;;;;;;;5.28;2.00;;;;;;;;;;5054521;28;20044;-75
2022/09/26 12:12:48;;;;;;;3.08;2.03;;;;;;;;;;5091099;28;20016;-75
2022/09/26 12:15:22;;;;;;;5.13;2.00;;;;;;;;;;5074980;28;20087;-75
2022/09/26 12:17:48;;;;;;;5.88;1.73;;;;;;;;;;5054068;28;20017;-75
2022/09/26 12:20:34;;;;;;;6.43;2.08;;;;;;;;;;5054154;28;20036;-75
2022/09/26 12:23:16;;;;;;;4.30;2.10;;;;;;;;;;5078794;28;20055;-74
2022/09/26 12:25:54;;;;;;;6.93;2.30;;;;;;;;;;5070749;28;20428;-73
2022/09/26 12:28:21;;;;;;;7.20;3.05;;;;;;;;;;5073559;28;20021;-73
2022/09/26 12:30:48;;;;;;;5.63;2.10;;;;;;;;;;5053931;28;20024;-75
2022/09/26 12:33:28;;;;;;;5.38;2.10;;;;;;;;;;5066404;28;20017;-76
2022/09/26 12:36:21;;;;;;;5.53;1.92;;;;;;;;;;5050256;28;20155;-74
2022/09/26 12:39:00;;;;;;;7.88;2.22;;;;;;;;;;5048794;28;20020;-75
2022/09/26 12:41:45;;;;;;;5.60;2.60;;;;;;;;;;5053840;28;20019;-75
2022/09/26 12:44:14;;;;;;;4.28;2.20;;;;;;;;;;5044888;28;20017;-76
2022/09/26 12:46:46;;;;;;;3.63;1.85;;;;;;;;;;5061852;28;20029;-76
2022/09/26 12:49:30;;;;;;;7.13;2.00;;;;;;;;;;5045954;28;20024;-75
2022/09/26 12:52:19;;;;;;;6.38;2.10;;;;;;;;;;5054588;28;20035;-76
2022/09/26 12:55:06;;;;;;;6.43;2.67;;;;;;;;;;5055926;28;20530;-76
2022/09/26 12:57:43;;;;;;;4.85;1.60;;;;;;;;;;5041282;28;20029;-76
2022/09/26 13:00:09;;;;;;;2.38;1.80;;;;;;;;;;5050830;28;20712;-76
2022/09/26 13:02:50;;;;;;;2.95;1.90;;;;;;;;;;5048313;28;20412;-77
2022/09/26 13:05:30;;;;;;;3.47;1.70;;;;;;;;;;5065797;28;20063;-77
2022/09/26 13:07:57;;;;;;;3.47;1.60;;;;;;;;;;5065654;28;20033;-76
2022/09/26 13:10:38;;;;;;;3.50;1.77;;;;;;;;;;5068871;28;20037;-75
2022/09/26 13:13:14;;;;;;;4.22;2.22;;;;;;;;;;5065802;28;20454;-77
2022/09/26 13:15:50;;;;;;;3.35;2.03;;;;;;;;;;5053289;28;20025;-76
2022/09/26 13:18:30;;;;;;;6.18;2.22;;;;;;;;;;5067911;28;20082;-79
2022/09/26 13:21:02;;;;;;;7.72;3.20;;;;;;;;;;5048431;28;20031;-74
2022/09/26 13:23:35;;;;;;;8.00;2.30;;;;;;;;;;5071898;28;20041;-76
2022/09/26 13:26:02;;;;;;;6.20;2.78;;;;;;;;;;5067199;28;20075;-74
2022/09/26 13:28:49;;;;;;;4.45;2.10;;;;;;;;;;5069949;28;20021;-74
2022/09/26 13:31:39;;;;;;;5.53;2.08;;;;;;;;;;5064211;28;20461;-79
2022/09/26 13:34:11;;;;;;;5.75;2.35;;;;;;;;;;5080453;28;20496;-77
2022/09/26 13:36:40;;;;;;;4.38;2.30;;;;;;;;;;5050797;28;20048;-77
2022/09/26 13:39:06;;;;;;;6.80;2.25;;;;;;;;;;5047736;28;20025;-76
2022/09/26 13:41:39;;;;;;;4.78;2.63;;;;;;;;;;5047390;28;20023;-77
2022/09/26 13:44:07;;;;;;;4.40;2.70;;;;;;;;;;5062368;28;20052;-74
2022/09/26 13:46:34;;;;;;;4.05;2.00;;;;;;;;;;5049780;28;20039;-76
2022/09/26 13:49:41;;;;;;;3.05;1.80;;;;;;;;;;5050243;28;20500;-77
2022/09/26 13:52:21;;;;;;;6.25;2.40;;;;;;;;;;4985092;28;20030;-73
2022/09/26 13:54:47;;;;;;;4.22;2.47;;;;;;;;;;4983642;28;20029;-76
2022/09/26 13:57:33;;;;;;;8.27;2.42;;;;;;;;;;5036455;28;20487;-75
2022/09/26 14:00:01;;;;;;;7.68;2.80;;;;;;;;;;5058588;28;20027;-74
2022/09/26 14:02:30;;;;;;;7.65;2.53;;;;;;;;;;5046829;28;20116;-75
2022/09/26 14:05:02;;;;;;;7.10;2.25;;;;;;;;;;5047534;28;20472;-73
2022/09/26 14:10:25;;;;;;;6.85;2.40;;;;;;;;;;5063756;28;20071;-74
2022/09/26 14:13:01;;;;;;;3.88;2.50;;;;;;;;;;5063053;28;20142;-74
2022/09/26 14:15:48;;;;;;;9.70;2.88;;;;;;;;;;5064542;28;20028;-73
2022/09/26 14:18:14;;;;;;;6.15;2.15;;;;;;;;;;5048935;28;20024;-75
2022/09/26 14:20:55;;;;;;;6.70;2.30;;;;;;;;;;5062047;28;20028;-75
2022/09/26 14:23:36;;;;;;;5.50;1.92;;;;;;;;;;5065006;28;21023;-73
2022/09/26 14:26:07;;;;;;;8.13;2.20;;;;;;;;;;5065350;28;20037;-73
2022/09/26 14:28:34;;;;;;;5.72;2.20;;;;;;;;;;5061059;28;20110;-74
2022/09/26 14:31:20;;;;;;;5.63;2.78;;;;;;;;;;5046925;28;20032;-78
2022/09/26 14:33:48;;;;;;;5.65;2.33;;;;;;;;;;5062673;28;20028;-76
2022/09/26 14:36:23;;;;;;;5.28;2.50;;;;;;;;;;5057656;28;20024;-73
2022/09/26 14:38:49;;;;;;;7.40;2.30;;;;;;;;;;5061133;28;20576;-76
2022/09/26 14:41:19;;;;;;;6.18;2.08;;;;;;;;;;5062295;28;20099;-76
2022/09/26 14:43:47;;;;;;;9.32;2.70;;;;;;;;;;5045167;28;20516;-73
2022/09/26 14:46:23;;;;;;;6.13;3.33;;;;;;;;;;5068865;28;20032;-73
2022/09/26 14:48:56;;;;;;;3.92;1.90;;;;;;;;;;5042983;28;20078;-76
2022/09/26 14:51:27;;;;;;;6.68;2.40;;;;;;;;;;5063545;28;20109;-75
2022/09/26 14:53:59;;;;;;;5.43;2.85;;;;;;;;;;5045988;28;20504;-75
2022/09/26 14:56:36;;;;;;;5.80;2.20;;;;;;;;;;5050569;28;20036;-76
2022/09/26 14:59:21;;;;;;;5.75;2.05;;;;;;;;;;5043218;28;20557;-76
2022/09/26 15:01:47;;;;;;;5.60;2.03;;;;;;;;;;5061166;28;20056;-75
2022/09/26 15:04:27;;;;;;;3.78;1.90;;;;;;;;;;5059628;28;20406;-75
2022/09/26 15:06:59;;;;;;;3.60;2.00;;;;;;;;;;5047431;28;20082;-75
2022/09/26 15:09:38;;;;;;;3.67;1.95;;;;;;;;;;5082721;28;20039;-73
2022/09/26 15:12:09;;;;;;;3.15;2.03;;;;;;;;;;5045700;28;20078;-74
2022/09/26 15:14:35;;;;;;;6.88;2.38;;;;;;;;;;5082463;28;20070;-74
2022/09/26 15:17:01;;;;;;;5.45;3.42;;;;;;;;;;5065756;28;20037;-74
2022/09/26 15:19:33;;;;;;;5.03;2.08;;;;;;;;;;5046093;28;20021;-74
2022/09/26 15:22:01;;;;;;;5.40;2.25;;;;;;;;;;5057994;28;20409;-74
2022/09/26 15:24:31;;;;;;;2.95;1.70;;;;;;;;;;5048737;28;20036;-76
2022/09/26 15:27:00;;;;;;;4.90;2.10;;;;;;;;;;5054058;28;20044;-75